Time;durP1;ratioP1;P1;durP2;ratioP2;P2;SDS_P1;SDS_P2;PMS_P1;PMS_P2;Temp;Humidity;BMP_temperature;BMP_pressure;BME280_temperature;BME280_humidity;BME280_pressure;Samples;Min_cycle;Max_cycle;Signal;HPM_P1;HPM_P2
2023/05/05 00:01:05;;;;;;;6.07;4.10;;;15.20;99.90;;;;;;5034269;28;20173;-50
2023/05/05 00:03:34;;;;;;;5.17;4.00;;;15.20;99.90;;;;;;5034420;28;20246;-51
2023/05/05 00:05:59;;;;;;;4.97;4.47;;;15.20;99.90;;;;;;5034478;28;20180;-51
2023/05/05 00:08:25;;;;;;;8.63;4.27;;;15.20;99.90;;;;;;5034398;28;20226;-50
2023/05/05 00:10:52;;;;;;;5.00;4.20;;;15.20;99.90;;;;;;5034941;28;20215;-49
2023/05/05 00:13:18;;;;;;;5.83;4.47;;;15.20;99.90;;;;;;5034271;28;20205;-52
2023/05/05 00:15:46;;;;;;;5.43;4.37;;;15.20;99.90;;;;;;5034295;28;20232;-50
2023/05/05 00:18:15;;;;;;;4.73;3.97;;;15.20;99.90;;;;;;5034171;28;20208;-52
2023/05/05 00:20:40;;;;;;;5.83;4.40;;;15.20;99.90;;;;;;5034250;28;20194;-49
2023/05/05 00:23:06;;;;;;;6.97;4.93;;;15.30;99.90;;;;;;5033848;28;20307;-52
2023/05/05 00:25:31;;;;;;;6.60;4.47;;;15.30;99.90;;;;;;5034223;28;20533;-51
2023/05/05 00:27:57;;;;;;;6.57;4.40;;;15.40;99.90;;;;;;5033807;28;20173;-50
2023/05/05 00:30:23;;;;;;;6.87;4.67;;;15.40;99.90;;;;;;5034301;28;20177;-51
2023/05/05 00:32:49;;;;;;;6.53;5.27;;;15.50;99.90;;;;;;5033631;28;20745;-50
2023/05/05 00:35:16;;;;;;;6.73;4.73;;;15.50;99.90;;;;;;5033629;28;20185;-49
2023/05/05 00:37:42;;;;;;;5.73;5.13;;;15.40;99.90;;;;;;5033886;28;20185;-51
2023/05/05 00:40:08;;;;;;;7.50;5.10;;;15.40;99.90;;;;;;5033876;28;20184;-51
2023/05/05 00:42:45;;;;;;;5.57;4.90;;;15.30;99.90;;;;;;5033616;28;20639;-50
2023/05/05 00:45:12;;;;;;;5.53;5.00;;;15.30;99.90;;;;;;5033873;28;20571;-50
2023/05/05 00:47:40;;;;;;;5.70;5.10;;;15.30;99.90;;;;;;5033495;28;20561;-51
2023/05/05 00:50:08;;;;;;;8.23;5.20;;;15.30;99.90;;;;;;5015845;28;20169;-51
2023/05/05 00:52:35;;;;;;;7.60;5.63;;;15.30;99.90;;;;;;5033733;28;20248;-51
2023/05/05 00:55:03;;;;;;;7.83;4.90;;;15.30;99.90;;;;;;5015956;28;20545;-50
2023/05/05 00:57:29;;;;;;;6.50;5.33;;;15.30;99.90;;;;;;5033750;28;20181;-52
2023/05/05 00:59:55;;;;;;;9.27;5.23;;;15.30;99.90;;;;;;5033931;28;20216;-49
2023/05/05 01:02:21;;;;;;;8.00;5.13;;;15.20;99.90;;;;;;5033370;28;20727;-50
2023/05/05 01:04:47;;;;;;;6.13;5.00;;;15.20;99.90;;;;;;5033580;28;20188;-52
2023/05/05 01:07:35;;;;;;;5.83;5.00;;;15.10;99.90;;;;;;5033283;28;20185;-51
2023/05/05 01:10:30;;;;;;;5.50;4.83;;;15.00;99.90;;;;;;5033549;28;20247;-52
2023/05/05 01:13:29;;;;;;;5.67;5.00;;;15.00;99.90;;;;;;5004693;28;20212;-49
2023/05/05 01:16:17;;;;;;;7.03;5.00;;;14.90;99.90;;;;;;5033746;28;20215;-50
2023/05/05 01:18:53;;;;;;;6.37;5.30;;;14.90;99.90;;;;;;5033475;28;20287;-52
2023/05/05 01:21:22;;;;;;;5.60;5.00;;;14.90;99.90;;;;;;5033313;28;20187;-50
2023/05/05 01:24:10;;;;;;;8.87;5.53;;;15.00;99.90;;;;;;5015357;28;20203;-51
2023/05/05 01:26:58;;;;;;;6.27;5.53;;;14.90;99.90;;;;;;5033742;28;20181;-51
2023/05/05 01:29:42;;;;;;;6.67;5.40;;;14.90;99.90;;;;;;5015478;28;20177;-52
2023/05/05 01:32:13;;;;;;;5.40;4.60;;;14.90;99.90;;;;;;5033598;28;20287;-50
2023/05/05 01:34:51;;;;;;;7.57;5.00;;;14.90;99.90;;;;;;5033357;28;20188;-51
2023/05/05 01:37:21;;;;;;;6.53;5.20;;;14.80;99.90;;;;;;5033043;28;20626;-50
2023/05/05 01:39:51;;;;;;;6.60;5.13;;;14.70;99.90;;;;;;5032982;28;20255;-51
2023/05/05 01:42:19;;;;;;;10.37;5.10;;;14.60;99.90;;;;;;5032942;28;20211;-51
2023/05/05 01:44:46;;;;;;;7.63;5.37;;;14.60;99.90;;;;;;5033444;28;20192;-50
2023/05/05 01:47:15;;;;;;;5.87;5.30;;;14.50;99.90;;;;;;5033044;28;20208;-51
2023/05/05 01:49:43;;;;;;;6.37;5.30;;;14.40;99.90;;;;;;5036336;28;20189;-51
2023/05/05 01:52:09;;;;;;;5.87;5.27;;;14.40;99.90;;;;;;5036776;28;20209;-52
2023/05/05 01:54:37;;;;;;;6.90;6.20;;;14.40;99.90;;;;;;5037086;28;20641;-49
2023/05/05 01:57:04;;;;;;;8.23;5.33;;;14.30;99.90;;;;;;5036988;28;20187;-50
2023/05/05 01:59:31;;;;;;;6.93;5.33;;;14.20;99.90;;;;;;5019405;28;20678;-50
2023/05/05 02:02:00;;;;;;;6.70;5.27;;;14.10;99.90;;;;;;5036722;28;20184;-52
2023/05/05 02:04:28;;;;;;;6.10;5.40;;;14.10;99.90;;;;;;5036805;28;20535;-51
2023/05/05 02:06:56;;;;;;;5.33;4.73;;;14.00;99.90;;;;;;5036563;28;20280;-50
2023/05/05 02:09:25;;;;;;;6.67;5.37;;;14.00;99.90;;;;;;5036469;28;20184;-45
2023/05/05 02:11:51;;;;;;;6.13;5.23;;;13.90;99.90;;;;;;5036727;28;20636;-45
2023/05/05 02:14:19;;;;;;;8.47;5.87;;;13.80;99.90;;;;;;5036992;28;20532;-52
2023/05/05 02:16:45;;;;;;;6.90;5.47;;;13.80;99.90;;;;;;5036477;28;20188;-51
2023/05/05 02:19:12;;;;;;;5.97;5.37;;;13.80;99.90;;;;;;5018607;28;20204;-50
2023/05/05 02:21:39;;;;;;;6.53;5.50;;;13.70;99.90;;;;;;5036280;28;20177;-51
2023/05/05 02:24:06;;;;;;;7.97;6.10;;;13.70;99.90;;;;;;5036522;28;20211;-49
2023/05/05 02:26:36;;;;;;;10.30;6.60;;;13.70;99.90;;;;;;5036587;28;20227;-52
2023/05/05 02:29:28;;;;;;;7.17;6.13;;;13.70;99.90;;;;;;5036558;28;20197;-50
2023/05/05 02:32:00;;;;;;;6.40;5.80;;;13.80;99.90;;;;;;5038086;28;20172;-49
2023/05/05 02:34:28;;;;;;;8.13;6.33;;;13.90;99.90;;;;;;5040909;28;20621;-50
2023/05/05 02:36:57;;;;;;;9.47;6.63;;;13.80;99.90;;;;;;5038783;28;20597;-50
2023/05/05 02:39:37;;;;;;;7.73;6.30;;;13.80;99.90;;;;;;5036318;28;20202;-49
2023/05/05 02:42:04;;;;;;;8.17;5.73;;;13.80;99.90;;;;;;5036165;28;20196;-50
2023/05/05 02:44:32;;;;;;;7.30;6.23;;;13.70;99.90;;;;;;5036056;28;20184;-51
2023/05/05 02:46:58;;;;;;;7.30;6.00;;;13.70;99.90;;;;;;5036266;28;20173;-50
2023/05/05 02:49:23;;;;;;;9.10;6.73;;;13.60;99.90;;;;;;5035642;28;20215;-49
2023/05/05 02:51:50;;;;;;;8.73;7.53;;;13.50;99.90;;;;;;5035857;28;20181;-51
2023/05/05 02:54:15;;;;;;;12.33;8.33;;;13.50;99.90;;;;;;5035866;28;20634;-49
2023/05/05 02:56:49;;;;;;;14.37;7.30;;;13.50;99.90;;;;;;5036154;28;20195;-51
2023/05/05 02:59:29;;;;;;;9.50;6.60;;;13.50;99.90;;;;;;5035033;28;20213;-51
2023/05/05 03:02:07;;;;;;;8.00;6.53;;;13.50;99.90;;;;;;5035882;28;20186;-51
2023/05/05 03:04:45;;;;;;;7.37;6.53;;;13.40;99.90;;;;;;5035433;28;20244;-50
2023/05/05 03:07:29;;;;;;;10.67;6.50;;;13.30;99.90;;;;;;5035728;28;20165;-51
2023/05/05 03:09:54;;;;;;;7.03;6.03;;;13.20;99.90;;;;;;5035376;28;20632;-49
2023/05/05 03:12:26;;;;;;;7.80;6.40;;;13.10;99.90;;;;;;5035284;28;20343;-50
2023/05/05 03:14:54;;;;;;;7.13;6.43;;;13.10;99.90;;;;;;5035346;28;20169;-51
2023/05/05 03:17:21;;;;;;;8.40;5.80;;;13.00;99.90;;;;;;5035595;28;20251;-51
2023/05/05 03:19:48;;;;;;;6.27;5.67;;;12.90;99.90;;;;;;5035373;28;20221;-52
2023/05/05 03:22:13;;;;;;;7.93;7.03;;;12.80;99.90;;;;;;5035235;28;20562;-51
2023/05/05 03:24:40;;;;;;;8.33;6.10;;;12.80;99.90;;;;;;5035064;28;20184;-51
2023/05/05 03:27:05;;;;;;;8.13;6.27;;;12.70;99.90;;;;;;5017318;28;20192;-51
2023/05/05 03:29:31;;;;;;;11.23;6.30;;;12.60;99.90;;;;;;5035077;28;20189;-52
2023/05/05 03:31:57;;;;;;;7.00;6.30;;;12.60;99.90;;;;;;5035111;28;20188;-51
2023/05/05 03:34:23;;;;;;;8.43;6.40;;;12.50;99.90;;;;;;5034862;28;20229;-50
2023/05/05 03:36:48;;;;;;;8.63;6.77;;;12.50;99.90;;;;;;5034886;28;20551;-51
2023/05/05 03:39:14;;;;;;;7.53;6.43;;;12.40;99.90;;;;;;5035051;28;20267;-52
2023/05/05 03:41:39;;;;;;;12.87;6.63;;;12.40;99.90;;;;;;5034847;28;20208;-51
2023/05/05 03:44:05;;;;;;;10.77;7.10;;;12.30;99.90;;;;;;5034958;28;20220;-45
2023/05/05 03:46:30;;;;;;;9.70;8.30;;;12.30;99.90;;;;;;5034997;28;20185;-46
2023/05/05 03:48:56;;;;;;;11.93;7.90;;;12.30;99.90;;;;;;5034591;28;20201;-45
2023/05/05 03:51:23;;;;;;;10.87;7.87;;;12.30;99.90;;;;;;5034589;28;20646;-46
2023/05/05 03:53:48;;;;;;;9.30;8.07;;;12.40;99.90;;;;;;5034750;28;20617;-45
2023/05/05 03:56:14;;;;;;;12.13;9.23;;;12.40;99.90;;;;;;5035018;28;20267;-47
2023/05/05 03:58:40;;;;;;;11.20;8.27;;;12.40;99.90;;;;;;5034596;28;20214;-45
2023/05/05 04:01:05;;;;;;;10.13;8.10;;;12.50;99.90;;;;;;5034526;28;20224;-44
2023/05/05 04:03:31;;;;;;;13.27;8.73;;;12.40;99.90;;;;;;5034644;28;20196;-44
2023/05/05 04:05:56;;;;;;;14.73;9.43;;;12.40;99.90;;;;;;5034292;28;20642;-45
2023/05/05 04:08:22;;;;;;;9.67;8.67;;;12.40;99.90;;;;;;5034269;28;20276;-43
2023/05/05 04:10:47;;;;;;;14.07;8.67;;;12.40;99.90;;;;;;5033877;28;20182;-44
2023/05/05 04:13:13;;;;;;;10.33;8.47;;;12.40;99.90;;;;;;5033975;28;20243;-47
2023/05/05 04:15:44;;;;;;;9.97;7.80;;;12.40;99.90;;;;;;5016422;28;20220;-44
2023/05/05 04:18:10;;;;;;;12.47;8.23;;;12.30;99.90;;;;;;5034318;28;20231;-45
2023/05/05 04:20:35;;;;;;;10.40;7.53;;;12.30;99.90;;;;;;5034431;28;20659;-44
2023/05/05 04:23:01;;;;;;;12.40;7.67;;;12.30;99.90;;;;;;5034089;28;20617;-44
2023/05/05 04:25:26;;;;;;;11.77;8.17;;;12.20;99.90;;;;;;5034340;28;20610;-46
2023/05/05 04:27:52;;;;;;;9.23;7.90;;;12.20;99.90;;;;;;5033997;28;20538;-44
2023/05/05 04:30:17;;;;;;;8.43;7.30;;;12.20;99.90;;;;;;5034181;28;20185;-44
2023/05/05 04:32:43;;;;;;;9.40;7.37;;;12.20;99.90;;;;;;5034352;28;20224;-45
2023/05/05 04:35:08;;;;;;;10.73;8.70;;;12.20;99.90;;;;;;5034307;28;20177;-43
2023/05/05 04:37:34;;;;;;;12.03;8.73;;;12.30;99.90;;;;;;5034425;28;20189;-52
2023/05/05 04:40:00;;;;;;;11.27;8.93;;;12.30;99.90;;;;;;5034192;28;20213;-51
2023/05/05 04:42:25;;;;;;;11.07;8.93;;;12.40;99.90;;;;;;5017179;28;20204;-45
2023/05/05 04:44:51;;;;;;;11.03;9.27;;;12.40;99.90;;;;;;5034080;28;20181;-45
2023/05/05 04:47:16;;;;;;;11.07;9.07;;;12.50;99.90;;;;;;5034157;28;20183;-44
2023/05/05 04:49:43;;;;;;;12.50;8.53;;;12.60;99.90;;;;;;5034205;28;20189;-44
2023/05/05 04:52:12;;;;;;;12.27;8.97;;;12.60;99.90;;;;;;5015854;28;20216;-45
2023/05/05 04:54:37;;;;;;;9.43;8.33;;;12.50;99.90;;;;;;5033597;28;20193;-44
2023/05/05 04:57:03;;;;;;;9.50;8.50;;;12.50;99.90;;;;;;5033463;28;20184;-44
2023/05/05 04:59:28;;;;;;;8.67;7.67;;;12.50;99.90;;;;;;5033613;28;20563;-43
2023/05/05 05:01:54;;;;;;;9.80;8.03;;;12.40;99.90;;;;;;5034012;28;20192;-42
2023/05/05 05:04:21;;;;;;;11.17;8.50;;;12.40;99.90;;;;;;5033596;28;20185;-44
2023/05/05 05:06:46;;;;;;;8.90;7.80;;;12.40;99.90;;;;;;5033361;28;20207;-44
2023/05/05 05:09:12;;;;;;;11.07;8.60;;;12.40;99.90;;;;;;5033378;28;20212;-43
2023/05/05 05:11:38;;;;;;;13.70;9.17;;;12.40;99.90;;;;;;5033394;28;20680;-44
2023/05/05 05:14:03;;;;;;;16.17;8.63;;;12.40;99.90;;;;;;5015582;28;20209;-44
2023/05/05 05:16:29;;;;;;;14.17;9.30;;;12.40;99.90;;;;;;5033654;28;20661;-46
2023/05/05 05:18:54;;;;;;;10.77;9.03;;;12.40;99.90;;;;;;5033380;28;20259;-44
2023/05/05 05:21:20;;;;;;;12.67;9.53;;;12.40;99.90;;;;;;5033469;28;20177;-44
2023/05/05 05:23:46;;;;;;;12.13;9.80;;;12.50;99.90;;;;;;5035389;28;20207;-45
2023/05/05 05:26:11;;;;;;;11.47;9.10;;;12.50;99.90;;;;;;5037481;28;20181;-43
2023/05/05 05:28:37;;;;;;;10.27;8.67;;;12.50;99.90;;;;;;5037163;28;20554;-46
2023/05/05 05:31:03;;;;;;;11.13;9.60;;;12.60;99.90;;;;;;5037216;28;20195;-43
2023/05/05 05:33:29;;;;;;;17.03;9.47;;;12.60;99.90;;;;;;5037378;28;20202;-44
2023/05/05 05:35:54;;;;;;;14.97;9.87;;;12.70;99.90;;;;;;5037111;28;20188;-44
2023/05/05 05:38:20;;;;;;;13.90;10.67;;;12.80;99.90;;;;;;5037140;28;20669;-43
2023/05/05 05:40:45;;;;;;;17.27;12.33;;;12.90;99.90;;;;;;5037418;28;20185;-44
2023/05/05 05:43:11;;;;;;;18.33;14.13;;;13.00;99.90;;;;;;5036932;28;20257;-43
2023/05/05 05:45:37;;;;;;;19.00;13.60;;;13.10;99.90;;;;;;5037064;28;20200;-44
2023/05/05 05:48:02;;;;;;;15.37;12.73;;;13.20;99.90;;;;;;5036920;28;20270;-44
2023/05/05 05:50:28;;;;;;;15.80;13.67;;;13.40;99.90;;;;;;5037190;28;20226;-44
2023/05/05 05:52:54;;;;;;;20.67;13.40;;;13.60;99.90;;;;;;5019106;28;20308;-43
2023/05/05 05:55:20;;;;;;;17.93;13.90;;;13.80;99.90;;;;;;5036924;28;20173;-44
2023/05/05 05:57:46;;;;;;;18.13;14.03;;;13.90;99.90;;;;;;5036876;28;20549;-43
2023/05/05 06:00:12;;;;;;;17.07;13.60;;;14.10;99.90;;;;;;5036646;28;20185;-44
2023/05/05 06:02:38;;;;;;;21.07;15.03;;;14.30;99.90;;;;;;5036442;28;20201;-45
2023/05/05 06:05:04;;;;;;;17.97;14.27;;;14.60;99.90;;;;;;5036812;28;20303;-44
2023/05/05 06:07:29;;;;;;;17.13;13.87;;;14.80;99.90;;;;;;5037096;28;20231;-44
2023/05/05 06:09:55;;;;;;;18.70;13.80;;;15.10;99.90;;;;;;5036602;28;20192;-46
2023/05/05 06:12:21;;;;;;;19.67;14.90;;;15.40;99.90;;;;;;5036661;28;20676;-45
2023/05/05 06:14:46;;;;;;;19.77;12.93;;;15.60;99.90;;;;;;5036622;28;20252;-45
2023/05/05 06:17:12;;;;;;;21.30;14.47;;;15.90;99.90;;;;;;5036649;28;20599;-45
2023/05/05 06:19:39;;;;;;;18.87;13.37;;;16.10;99.90;;;;;;5036279;28;20208;-46
2023/05/05 06:22:05;;;;;;;21.90;13.70;;;16.20;99.90;;;;;;5042284;28;20201;-46
2023/05/05 06:24:31;;;;;;;20.57;14.20;;;16.50;99.90;;;;;;5047241;28;20187;-45
2023/05/05 06:26:58;;;;;;;18.27;13.90;;;16.70;99.90;;;;;;5043041;28;20216;-46
2023/05/05 06:29:24;;;;;;;17.67;14.03;;;16.90;99.90;;;;;;5037003;28;20201;-47
2023/05/05 06:31:49;;;;;;;15.47;13.23;;;17.00;99.90;;;;;;5036802;28;20626;-46
2023/05/05 06:34:15;;;;;;;19.23;12.87;;;17.20;99.90;;;;;;5036622;28;20207;-47
2023/05/05 06:36:40;;;;;;;19.57;13.40;;;17.50;99.90;;;;;;5036451;28;20299;-48
2023/05/05 06:39:06;;;;;;;18.43;13.20;;;17.60;99.90;;;;;;5036182;28;20571;-46
2023/05/05 06:41:32;;;;;;;15.87;13.30;;;17.70;99.90;;;;;;5036173;28;20741;-46
2023/05/05 06:43:57;;;;;;;21.57;13.20;;;17.90;99.90;;;;;;5035974;28;20284;-48
2023/05/05 06:46:23;;;;;;;16.63;12.90;;;18.00;99.90;;;;;;5036602;28;20260;-46
2023/05/05 06:48:48;;;;;;;17.53;13.50;;;18.00;99.90;;;;;;5035905;28;20196;-47
2023/05/05 06:51:14;;;;;;;15.60;13.43;;;18.10;99.90;;;;;;5035846;28;20193;-45
2023/05/05 06:53:40;;;;;;;17.03;13.53;;;18.20;99.90;;;;;;5035694;28;20239;-46
2023/05/05 06:56:06;;;;;;;14.83;12.77;;;18.40;99.90;;;;;;5035656;28;20208;-47
2023/05/05 06:58:32;;;;;;;17.50;13.50;;;18.40;99.90;;;;;;5035589;28;20258;-47
2023/05/05 07:00:57;;;;;;;19.07;13.63;;;18.40;99.90;;;;;;5035618;28;20231;-46
2023/05/05 07:03:23;;;;;;;19.80;13.30;;;18.40;99.90;;;;;;5035568;28;20196;-47
2023/05/05 07:05:48;;;;;;;17.93;13.87;;;18.40;99.90;;;;;;5035645;28;20234;-47
2023/05/05 07:08:14;;;;;;;15.13;12.83;;;18.50;99.90;;;;;;5035426;28;20192;-48
2023/05/05 07:10:39;;;;;;;23.27;13.63;;;18.60;99.90;;;;;;5035329;28;20196;-47
2023/05/05 07:13:06;;;;;;;14.70;11.73;;;18.70;99.90;;;;;;5035243;28;20201;-48
2023/05/05 07:15:32;;;;;;;16.17;11.03;;;18.80;99.90;;;;;;5017490;28;20280;-46
2023/05/05 07:17:58;;;;;;;12.80;11.30;;;18.90;99.90;;;;;;5035206;28;20255;-46
2023/05/05 07:20:23;;;;;;;16.33;11.77;;;18.90;99.90;;;;;;5035197;28;20177;-48
2023/05/05 07:22:49;;;;;;;16.43;11.33;;;19.00;99.90;;;;;;5035295;28;20280;-48
2023/05/05 07:25:15;;;;;;;16.83;11.83;;;19.10;99.90;;;;;;5035111;28;20216;-48
2023/05/05 07:27:40;;;;;;;14.23;11.27;;;19.20;99.90;;;;;;5035128;28;20173;-46
2023/05/05 07:30:07;;;;;;;13.90;10.87;;;19.20;99.90;;;;;;5035487;28;20551;-47
2023/05/05 07:32:33;;;;;;;12.40;10.63;;;19.20;99.90;;;;;;5035221;28;20209;-47
2023/05/05 07:34:59;;;;;;;14.43;12.17;;;19.20;99.90;;;;;;5035605;28;20190;-46
2023/05/05 07:37:24;;;;;;;13.73;11.00;;;19.10;99.90;;;;;;5034969;28;20216;-48
2023/05/05 07:39:50;;;;;;;13.63;11.17;;;19.10;99.90;;;;;;5034850;28;20204;-48
2023/05/05 07:42:15;;;;;;;12.80;11.30;;;19.10;99.90;;;;;;5035367;28;20205;-46
2023/05/05 07:44:41;;;;;;;12.63;10.33;;;19.30;99.90;;;;;;5034793;28;20176;-47
2023/05/05 07:47:06;;;;;;;21.37;11.73;;;19.40;99.90;;;;;;5034364;28;20271;-46
2023/05/05 07:49:33;;;;;;;12.47;9.40;;;19.60;99.90;;;;;;5034493;28;20273;-46
2023/05/05 07:51:59;;;;;;;11.03;9.67;;;19.70;99.90;;;;;;5034655;28;20173;-46
2023/05/05 07:54:25;;;;;;;11.17;9.70;;;19.60;99.90;;;;;;5034743;28;20195;-47
2023/05/05 07:56:51;;;;;;;16.03;9.87;;;19.70;99.90;;;;;;5034400;28;20185;-46
2023/05/05 07:59:16;;;;;;;14.50;10.10;;;19.90;99.90;;;;;;5034875;28;20212;-46
2023/05/05 08:01:42;;;;;;;13.07;10.20;;;20.00;99.90;;;;;;5034222;28;20205;-48
2023/05/05 08:04:08;;;;;;;10.43;8.07;;;20.10;99.90;;;;;;5034840;28;20208;-46
2023/05/05 08:06:33;;;;;;;11.67;9.17;;;20.10;99.90;;;;;;5034526;28;20243;-47
2023/05/05 08:08:59;;;;;;;11.67;8.73;;;20.20;99.90;;;;;;5034323;28;20551;-47
2023/05/05 08:11:25;;;;;;;11.17;8.80;;;20.30;99.90;;;;;;5034451;28;20214;-46
2023/05/05 08:13:50;;;;;;;13.17;8.10;;;20.50;99.90;;;;;;5034168;28;20207;-47
2023/05/05 08:16:16;;;;;;;9.87;7.43;;;20.70;99.90;;;;;;5016485;28;20169;-48
2023/05/05 08:18:42;;;;;;;10.07;7.57;;;20.80;99.90;;;;;;5034029;28;20232;-48
2023/05/05 08:21:08;;;;;;;7.30;6.53;;;20.90;99.90;;;;;;5034058;28;20176;-48
2023/05/05 08:23:35;;;;;;;9.30;7.03;;;21.10;99.90;;;;;;5033756;28;20220;-48
2023/05/05 08:26:01;;;;;;;7.90;6.30;;;21.30;99.90;;;;;;5033941;28;20184;-47
2023/05/05 08:28:27;;;;;;;8.83;6.50;;;21.20;99.90;;;;;;5034431;28;20191;-47
2023/05/05 08:30:53;;;;;;;8.23;5.97;;;21.10;99.90;;;;;;5033865;28;20185;-46
2023/05/05 08:33:18;;;;;;;7.43;6.50;;;21.10;99.90;;;;;;5033718;28;20197;-47
2023/05/05 08:35:44;;;;;;;8.93;6.57;;;21.10;99.90;;;;;;5034003;28;20719;-47
2023/05/05 08:38:11;;;;;;;9.17;5.63;;;21.00;99.90;;;;;;5033680;28;20216;-48
2023/05/05 08:40:40;;;;;;;7.53;5.73;;;21.00;99.90;;;;;;5033885;28;20546;-47
2023/05/05 08:43:06;;;;;;;6.67;5.50;;;21.10;99.90;;;;;;5033801;28;20220;-47
2023/05/05 08:45:32;;;;;;;6.40;5.57;;;21.20;99.90;;;;;;5033653;28;20594;-49
2023/05/05 08:48:03;;;;;;;6.27;4.07;;;21.30;99.90;;;;;;5033452;28;20197;-47
2023/05/05 08:50:30;;;;;;;6.73;5.67;;;21.30;99.90;;;;;;5033660;28;20203;-48
2023/05/05 08:53:11;;;;;;;6.90;4.70;;;21.50;99.90;;;;;;5033398;28;20258;-47
2023/05/05 08:55:50;;;;;;;5.00;4.57;;;21.60;99.90;;;;;;5033710;28;20189;-48
2023/05/05 08:58:20;;;;;;;4.53;3.70;;;21.80;99.90;;;;;;5032483;28;20197;-49
2023/05/05 09:00:46;;;;;;;6.23;3.80;;;22.00;99.90;;;;;;5033424;28;20177;-48
2023/05/05 09:03:12;;;;;;;4.87;3.80;;;22.20;99.90;;;;;;5033369;28;20259;-47
2023/05/05 09:05:38;;;;;;;6.60;3.50;;;22.40;99.90;;;;;;5033476;28;20184;-47
2023/05/05 09:08:09;;;;;;;3.40;3.10;;;22.40;99.90;;;;;;5033650;28;20227;-47
2023/05/05 09:10:35;;;;;;;6.63;3.60;;;22.50;99.90;;;;;;5033591;28;20219;-48
2023/05/05 09:13:04;;;;;;;5.87;4.10;;;22.60;99.90;;;;;;5033450;28;20196;-47
2023/05/05 09:15:29;;;;;;;5.23;3.00;;;22.60;99.90;;;;;;5033303;28;20192;-48
2023/05/05 09:17:59;;;;;;;5.67;4.87;;;22.90;99.90;;;;;;5033152;28;20173;-47
2023/05/05 09:20:36;;;;;;;5.93;4.63;;;23.00;99.90;;;;;;5033482;28;20227;-48
2023/05/05 09:23:12;;;;;;;6.67;4.13;;;23.10;99.90;;;;;;5033376;28;20561;-50
2023/05/05 09:25:39;;;;;;;7.83;4.00;;;22.90;99.90;;;;;;5033468;28;20172;-47
2023/05/05 09:28:12;;;;;;;4.93;3.77;;;22.70;99.90;;;;;;5033043;28;20268;-48
2023/05/05 09:30:40;;;;;;;4.67;2.90;;;22.50;99.90;;;;;;5015497;28;20180;-47
2023/05/05 09:33:06;;;;;;;4.87;3.07;;;22.30;99.90;;;;;;5033218;28;20240;-47
2023/05/05 09:35:51;;;;;;;3.60;2.77;;;22.50;99.90;;;;;;5033045;28;20278;-48
2023/05/05 09:38:18;;;;;;;6.60;3.20;;;22.60;99.90;;;;;;5033219;28;20209;-48
2023/05/05 09:40:51;;;;;;;3.17;2.70;;;22.70;99.90;;;;;;5032989;28;20177;-48
2023/05/05 09:43:22;;;;;;;4.90;3.37;;;22.80;99.90;;;;;;5033248;28;20205;-47
2023/05/05 09:45:48;;;;;;;5.40;3.23;;;22.80;99.90;;;;;;5032986;28;20248;-47
2023/05/05 09:48:28;;;;;;;3.47;2.60;;;22.80;99.90;;;;;;5032906;28;20200;-48
2023/05/05 09:50:55;;;;;;;4.00;2.60;;;22.90;99.90;;;;;;5032894;28;20192;-47
2023/05/05 09:53:21;;;;;;;5.70;3.23;;;22.80;99.90;;;;;;5032839;28;20201;-49
2023/05/05 09:55:59;;;;;;;3.93;2.70;;;22.80;99.90;;;;;;5033135;28;20189;-47
2023/05/05 09:58:29;;;;;;;3.03;2.57;;;22.80;99.90;;;;;;5033058;28;20259;-48
2023/05/05 10:00:56;;;;;;;3.70;2.13;;;22.80;99.90;;;;;;5015125;28;20189;-48
2023/05/05 10:03:22;;;;;;;3.43;2.10;;;22.90;99.90;;;;;;5033037;28;20288;-48
2023/05/05 10:05:51;;;;;;;3.87;1.97;;;22.90;99.90;;;;;;5033091;28;20176;-48
2023/05/05 10:08:23;;;;;;;4.67;2.20;;;22.90;99.90;;;;;;5032996;28;20189;-47
2023/05/05 10:10:52;;;;;;;4.27;2.27;;;23.00;99.90;;;;;;5036914;28;20242;-46
2023/05/05 10:13:20;;;;;;;8.03;2.50;;;23.20;99.90;;;;;;5036374;28;20680;-46
2023/05/05 10:15:49;;;;;;;3.97;2.20;;;23.40;99.90;;;;;;5036403;28;20184;-46
2023/05/05 10:18:20;;;;;;;4.33;2.40;;;23.50;99.90;;;;;;5036564;28;20203;-47
2023/05/05 10:20:47;;;;;;;3.17;2.20;;;23.50;99.90;;;;;;5036248;28;20170;-45
2023/05/05 10:23:17;;;;;;;4.23;2.43;;;23.50;99.90;;;;;;5036232;28;20193;-45
2023/05/05 10:25:49;;;;;;;6.20;2.50;;;23.50;99.90;;;;;;5037204;28;20236;-46
2023/05/05 10:28:21;;;;;;;3.33;2.50;;;23.40;99.90;;;;;;5036253;28;20205;-47
2023/05/05 10:30:50;;;;;;;4.30;2.67;;;23.10;99.90;;;;;;5036344;28;20165;-45
2023/05/05 10:33:21;;;;;;;3.20;2.10;;;23.00;99.90;;;;;;5037673;28;20201;-46
2023/05/05 10:35:51;;;;;;;3.37;2.50;;;22.90;99.90;;;;;;5036308;28;20173;-46
2023/05/05 10:38:17;;;;;;;3.67;2.50;;;22.90;99.90;;;;;;5036215;28;20212;-47
2023/05/05 10:40:47;;;;;;;3.57;2.47;;;22.90;99.90;;;;;;5036249;28;20181;-47
2023/05/05 10:43:13;;;;;;;3.00;2.03;;;22.90;99.90;;;;;;5038629;28;20199;-46
2023/05/05 10:45:40;;;;;;;3.47;2.77;;;23.00;99.90;;;;;;5038590;28;20184;-46
2023/05/05 10:48:13;;;;;;;5.57;3.07;;;23.00;99.90;;;;;;5037811;28;20201;-47
2023/05/05 10:50:48;;;;;;;3.50;2.63;;;22.90;99.90;;;;;;5036241;28;20263;-45
2023/05/05 10:53:22;;;;;;;4.97;2.87;;;22.70;99.90;;;;;;5035994;28;20567;-46
2023/05/05 10:56:20;;;;;;;5.03;2.90;;;22.60;99.90;;;;;;5035719;28;20161;-46
2023/05/05 10:58:45;;;;;;;4.27;2.83;;;22.40;99.90;;;;;;5035812;28;20235;-46
2023/05/05 11:01:11;;;;;;;4.23;2.70;;;22.20;99.90;;;;;;5035835;28;20181;-45
2023/05/05 11:03:36;;;;;;;3.60;2.30;;;22.00;99.90;;;;;;5035409;28;20200;-46
2023/05/05 11:06:02;;;;;;;3.27;2.43;;;21.90;99.90;;;;;;5035850;28;20185;-52
2023/05/05 11:08:29;;;;;;;6.53;2.60;;;21.70;99.90;;;;;;5035474;28;20192;-50
2023/05/05 11:10:54;;;;;;;5.63;2.90;;;21.70;99.90;;;;;;5035561;28;20189;-52
2023/05/05 11:13:20;;;;;;;3.43;2.90;;;21.60;99.90;;;;;;5035318;28;20242;-51
2023/05/05 11:15:47;;;;;;;5.90;3.07;;;21.50;99.90;;;;;;5035521;28;20242;-51
2023/05/05 11:18:30;;;;;;;5.33;3.30;;;21.30;99.90;;;;;;5035341;28;20184;-52
2023/05/05 11:20:58;;;;;;;5.33;3.43;;;21.30;99.90;;;;;;5034103;28;20646;-53
2023/05/05 11:23:25;;;;;;;4.87;3.90;;;21.10;99.90;;;;;;5035252;28;20534;-53
2023/05/05 11:25:54;;;;;;;6.70;3.97;;;21.00;99.90;;;;;;5035058;28;20679;-52
2023/05/05 11:28:22;;;;;;;8.53;4.20;;;20.90;99.90;;;;;;5035291;28;20177;-53
2023/05/05 11:30:57;;;;;;;4.97;3.30;;;20.90;99.90;;;;;;5035144;28;20180;-51
2023/05/05 11:33:36;;;;;;;6.33;3.63;;;20.90;99.90;;;;;;5035278;28;20676;-48
2023/05/05 11:36:02;;;;;;;5.73;3.00;;;20.90;99.90;;;;;;5034899;28;20172;-48
2023/05/05 11:38:47;;;;;;;4.33;2.90;;;21.00;99.90;;;;;;5035029;28;20737;-48
2023/05/05 11:41:13;;;;;;;2.27;1.70;;;21.00;99.90;;;;;;5034757;28;20645;-47
2023/05/05 11:43:40;;;;;;;3.77;1.70;;;21.00;99.90;;;;;;5034993;28;20200;-47
2023/05/05 11:46:24;;;;;;;2.57;1.47;;;21.10;99.90;;;;;;5034806;28;20203;-48
2023/05/05 11:48:53;;;;;;;2.77;1.70;;;21.20;99.90;;;;;;5034651;28;20193;-49
2023/05/05 11:51:18;;;;;;;1.50;1.20;;;21.20;99.90;;;;;;5035208;28;20177;-48
2023/05/05 11:53:45;;;;;;;3.43;1.50;;;21.20;99.90;;;;;;5034537;28;20196;-49
2023/05/05 11:56:17;;;;;;;2.17;1.40;;;21.30;99.90;;;;;;5034776;28;20275;-48
2023/05/05 11:58:44;;;;;;;2.27;1.10;;;21.30;99.90;;;;;;5034621;28;20256;-50
2023/05/05 12:01:10;;;;;;;2.47;1.10;;;21.40;99.90;;;;;;5034439;28;20649;-50
2023/05/05 12:03:39;;;;;;;1.67;1.17;;;21.50;99.90;;;;;;5034619;28;20201;-50
2023/05/05 12:06:06;;;;;;;2.87;1.70;;;21.50;99.90;;;;;;5034375;28;20260;-49
2023/05/05 12:08:39;;;;;;;3.30;1.40;;;21.60;99.90;;;;;;5034354;28;20637;-49
2023/05/05 12:12:00;;;;;;;2.93;1.37;;;21.70;99.90;;;;;;5016637;28;20177;-49
2023/05/05 12:14:26;;;;;;;2.17;1.00;;;21.70;99.90;;;;;;5034205;28;20173;-49
2023/05/05 12:16:55;;;;;;;2.50;1.00;;;21.70;99.90;;;;;;5034131;28;20230;-48
2023/05/05 12:19:21;;;;;;;3.57;1.50;;;21.80;99.90;;;;;;5034054;28;20201;-48
2023/05/05 12:21:47;;;;;;;3.13;1.37;;;21.90;99.90;;;;;;5033957;28;20184;-49
2023/05/05 12:24:13;;;;;;;1.43;0.97;;;22.00;99.90;;;;;;5033978;28;20169;-50
2023/05/05 12:26:39;;;;;;;1.63;1.20;;;22.10;99.90;;;;;;5034282;28;20375;-49
2023/05/05 12:29:04;;;;;;;8.03;1.40;;;22.20;99.90;;;;;;5034186;28;20192;-49
2023/05/05 12:31:37;;;;;;;3.50;1.30;;;22.30;99.90;;;;;;5034318;28;20192;-49
2023/05/05 12:34:05;;;;;;;2.90;1.53;;;22.30;99.90;;;;;;5034341;28;20340;-49
2023/05/05 12:36:32;;;;;;;3.17;1.70;;;22.40;99.90;;;;;;5034074;28;20575;-51
2023/05/05 12:38:58;;;;;;;3.67;1.40;;;22.30;99.90;;;;;;5033814;28;20720;-49
2023/05/05 12:41:23;;;;;;;2.43;1.23;;;22.30;99.90;;;;;;5034263;28;20173;-49
2023/05/05 12:43:54;;;;;;;3.33;1.20;;;22.20;99.90;;;;;;5033891;28;20537;-49
2023/05/05 12:46:21;;;;;;;1.93;0.93;;;22.20;99.90;;;;;;5033866;28;20187;-51